sensor_id;sensor_type;location;lat;lon;timestamp;temperature;humidity
770;DHT22;368;48.698;9.116;2022-10-16T00:00:48;14.60;99.90
770;DHT22;368;48.698;9.116;2022-10-16T00:03:15;14.70;99.90
770;DHT22;368;48.698;9.116;2022-10-16T00:05:42;14.80;99.90
770;DHT22;368;48.698;9.116;2022-10-16T00:08:11;14.70;99.90
770;DHT22;368;48.698;9.116;2022-10-16T00:10:38;14.70;99.90
770;DHT22;368;48.698;9.116;2022-10-16T00:13:06;14.50;99.90
770;DHT22;368;48.698;9.116;2022-10-16T00:15:34;14.60;99.90
770;DHT22;368;48.698;9.116;2022-10-16T00:18:04;14.30;99.90
770;DHT22;368;48.698;9.116;2022-10-16T00:20:33;14.30;99.90
770;DHT22;368;48.698;9.116;2022-10-16T00:23:02;14.00;99.90
770;DHT22;368;48.698;9.116;2022-10-16T00:25:29;14.00;99.90
770;DHT22;368;48.698;9.116;2022-10-16T00:27:58;13.80;99.90
770;DHT22;368;48.698;9.116;2022-10-16T00:30:25;13.80;99.90
770;DHT22;368;48.698;9.116;2022-10-16T00:32:53;13.80;99.90
770;DHT22;368;48.698;9.116;2022-10-16T00:35:21;13.90;99.90
770;DHT22;368;48.698;9.116;2022-10-16T00:37:48;13.80;99.90
770;DHT22;368;48.698;9.116;2022-10-16T00:40:15;14.00;99.90
770;DHT22;368;48.698;9.116;2022-10-16T00:42:41;14.00;99.90
770;DHT22;368;48.698;9.116;2022-10-16T00:45:09;14.00;99.90
770;DHT22;368;48.698;9.116;2022-10-16T00:47:38;14.20;99.90
770;DHT22;368;48.698;9.116;2022-10-16T00:50:09;14.10;99.90
770;DHT22;368;48.698;9.116;2022-10-16T00:52:41;14.30;99.90
770;DHT22;368;48.698;9.116;2022-10-16T00:55:09;14.10;99.90
770;DHT22;368;48.698;9.116;2022-10-16T00:57:37;13.80;99.90
770;DHT22;368;48.698;9.116;2022-10-16T01:00:09;14.00;99.90
770;DHT22;368;48.698;9.116;2022-10-16T01:02:37;14.00;99.90
770;DHT22;368;48.698;9.116;2022-10-16T01:05:04;14.10;99.90
770;DHT22;368;48.698;9.116;2022-10-16T01:07:39;14.00;99.90
770;DHT22;368;48.698;9.116;2022-10-16T01:10:17;13.70;99.90
770;DHT22;368;48.698;9.116;2022-10-16T01:12:53;13.60;99.90
770;DHT22;368;48.698;9.116;2022-10-16T01:15:26;13.50;99.90
770;DHT22;368;48.698;9.116;2022-10-16T01:18:00;13.60;99.90
770;DHT22;368;48.698;9.116;2022-10-16T01:20:30;13.40;99.90
770;DHT22;368;48.698;9.116;2022-10-16T01:23:05;13.50;99.90
770;DHT22;368;48.698;9.116;2022-10-16T01:25:51;13.30;99.90
770;DHT22;368;48.698;9.116;2022-10-16T01:28:27;13.30;99.90
770;DHT22;368;48.698;9.116;2022-10-16T01:30:58;13.40;99.90
770;DHT22;368;48.698;9.116;2022-10-16T01:33:30;13.30;99.90
770;DHT22;368;48.698;9.116;2022-10-16T01:36:05;13.20;99.90
770;DHT22;368;48.698;9.116;2022-10-16T01:38:35;13.20;99.90
770;DHT22;368;48.698;9.116;2022-10-16T01:41:06;13.30;99.90
770;DHT22;368;48.698;9.116;2022-10-16T01:43:39;13.50;99.90
770;DHT22;368;48.698;9.116;2022-10-16T01:46:08;13.40;99.90
770;DHT22;368;48.698;9.116;2022-10-16T01:48:37;13.40;99.90
770;DHT22;368;48.698;9.116;2022-10-16T01:51:06;13.30;99.90
770;DHT22;368;48.698;9.116;2022-10-16T01:53:36;13.30;99.90
770;DHT22;368;48.698;9.116;2022-10-16T01:56:06;13.30;99.90
770;DHT22;368;48.698;9.116;2022-10-16T01:58:39;13.30;99.90
770;DHT22;368;48.698;9.116;2022-10-16T02:01:09;13.30;99.90
770;DHT22;368;48.698;9.116;2022-10-16T02:03:38;13.30;99.90
770;DHT22;368;48.698;9.116;2022-10-16T02:06:07;13.30;99.90
770;DHT22;368;48.698;9.116;2022-10-16T02:08:35;13.40;99.90
770;DHT22;368;48.698;9.116;2022-10-16T02:11:02;13.30;99.90
770;DHT22;368;48.698;9.116;2022-10-16T02:13:32;13.50;99.90
770;DHT22;368;48.698;9.116;2022-10-16T02:16:03;13.40;99.90
770;DHT22;368;48.698;9.116;2022-10-16T02:18:30;13.70;99.90
770;DHT22;368;48.698;9.116;2022-10-16T02:20:59;13.60;99.90
770;DHT22;368;48.698;9.116;2022-10-16T02:23:35;13.90;99.90
770;DHT22;368;48.698;9.116;2022-10-16T02:26:05;13.60;99.90
770;DHT22;368;48.698;9.116;2022-10-16T02:28:39;13.70;99.90
770;DHT22;368;48.698;9.116;2022-10-16T02:31:10;13.80;99.90
770;DHT22;368;48.698;9.116;2022-10-16T02:33:39;13.70;99.90
770;DHT22;368;48.698;9.116;2022-10-16T02:36:07;13.80;99.90
770;DHT22;368;48.698;9.116;2022-10-16T02:38:34;13.90;99.90
770;DHT22;368;48.698;9.116;2022-10-16T02:41:02;13.60;99.90
770;DHT22;368;48.698;9.116;2022-10-16T02:43:29;13.80;99.90
770;DHT22;368;48.698;9.116;2022-10-16T02:45:56;13.50;99.90
770;DHT22;368;48.698;9.116;2022-10-16T02:48:24;14.00;99.90
770;DHT22;368;48.698;9.116;2022-10-16T02:50:51;13.60;99.90
770;DHT22;368;48.698;9.116;2022-10-16T02:53:18;13.80;99.90
770;DHT22;368;48.698;9.116;2022-10-16T02:55:44;13.90;99.90
770;DHT22;368;48.698;9.116;2022-10-16T02:58:11;13.80;99.90
770;DHT22;368;48.698;9.116;2022-10-16T03:00:38;13.80;99.90
770;DHT22;368;48.698;9.116;2022-10-16T03:03:05;13.80;99.90
770;DHT22;368;48.698;9.116;2022-10-16T03:05:33;13.80;99.90
770;DHT22;368;48.698;9.116;2022-10-16T03:08:00;13.70;99.90
770;DHT22;368;48.698;9.116;2022-10-16T03:10:27;13.60;99.90
770;DHT22;368;48.698;9.116;2022-10-16T03:12:54;13.80;99.90
770;DHT22;368;48.698;9.116;2022-10-16T03:15:20;13.60;99.90
770;DHT22;368;48.698;9.116;2022-10-16T03:17:47;13.60;99.90
770;DHT22;368;48.698;9.116;2022-10-16T03:20:14;13.70;99.90
770;DHT22;368;48.698;9.116;2022-10-16T03:22:42;13.30;99.90
770;DHT22;368;48.698;9.116;2022-10-16T03:25:09;13.40;99.90
770;DHT22;368;48.698;9.116;2022-10-16T03:27:36;13.50;99.90
770;DHT22;368;48.698;9.116;2022-10-16T03:30:03;13.40;99.90
770;DHT22;368;48.698;9.116;2022-10-16T03:32:30;13.60;99.90
770;DHT22;368;48.698;9.116;2022-10-16T03:34:57;13.40;99.90
770;DHT22;368;48.698;9.116;2022-10-16T03:37:24;13.70;99.90
770;DHT22;368;48.698;9.116;2022-10-16T03:39:53;13.40;99.90
770;DHT22;368;48.698;9.116;2022-10-16T03:42:20;13.60;99.90
770;DHT22;368;48.698;9.116;2022-10-16T03:44:47;13.40;99.90
770;DHT22;368;48.698;9.116;2022-10-16T03:47:13;13.30;99.90
770;DHT22;368;48.698;9.116;2022-10-16T03:49:40;13.20;99.90
770;DHT22;368;48.698;9.116;2022-10-16T03:52:07;13.10;99.90
770;DHT22;368;48.698;9.116;2022-10-16T03:54:34;13.10;99.90
770;DHT22;368;48.698;9.116;2022-10-16T03:57:02;13.30;99.90
770;DHT22;368;48.698;9.116;2022-10-16T03:59:28;13.20;99.90
770;DHT22;368;48.698;9.116;2022-10-16T04:01:55;13.30;99.90
770;DHT22;368;48.698;9.116;2022-10-16T04:04:22;13.20;99.90
770;DHT22;368;48.698;9.116;2022-10-16T04:06:50;13.20;99.90
770;DHT22;368;48.698;9.116;2022-10-16T04:09:17;13.10;99.90
770;DHT22;368;48.698;9.116;2022-10-16T04:11:43;13.10;99.90
770;DHT22;368;48.698;9.116;2022-10-16T04:14:12;13.20;99.90
770;DHT22;368;48.698;9.116;2022-10-16T04:16:38;13.20;99.90
770;DHT22;368;48.698;9.116;2022-10-16T04:19:05;13.30;99.90
770;DHT22;368;48.698;9.116;2022-10-16T04:21:32;13.40;99.90
770;DHT22;368;48.698;9.116;2022-10-16T04:23:59;13.30;99.90
770;DHT22;368;48.698;9.116;2022-10-16T04:26:25;13.10;99.90
770;DHT22;368;48.698;9.116;2022-10-16T04:28:52;13.10;99.90
770;DHT22;368;48.698;9.116;2022-10-16T04:31:20;13.10;99.90
770;DHT22;368;48.698;9.116;2022-10-16T04:33:47;13.40;99.90
770;DHT22;368;48.698;9.116;2022-10-16T04:36:14;13.00;99.90
770;DHT22;368;48.698;9.116;2022-10-16T04:38:41;13.20;99.90
770;DHT22;368;48.698;9.116;2022-10-16T04:41:07;13.00;99.90
770;DHT22;368;48.698;9.116;2022-10-16T04:43:34;12.80;99.90
770;DHT22;368;48.698;9.116;2022-10-16T04:46:01;13.20;99.90
770;DHT22;368;48.698;9.116;2022-10-16T04:48:31;13.10;99.90
770;DHT22;368;48.698;9.116;2022-10-16T04:50:58;13.20;99.90
770;DHT22;368;48.698;9.116;2022-10-16T04:53:25;13.20;99.90
770;DHT22;368;48.698;9.116;2022-10-16T04:55:52;13.20;99.90
770;DHT22;368;48.698;9.116;2022-10-16T04:58:18;13.30;99.90
770;DHT22;368;48.698;9.116;2022-10-16T05:00:45;13.20;99.90
770;DHT22;368;48.698;9.116;2022-10-16T05:03:12;13.00;99.90
770;DHT22;368;48.698;9.116;2022-10-16T05:05:44;13.30;99.90
770;DHT22;368;48.698;9.116;2022-10-16T05:08:12;13.00;99.90
770;DHT22;368;48.698;9.116;2022-10-16T05:10:41;13.10;99.90
770;DHT22;368;48.698;9.116;2022-10-16T05:13:08;13.20;99.90
770;DHT22;368;48.698;9.116;2022-10-16T05:15:35;13.30;99.90
770;DHT22;368;48.698;9.116;2022-10-16T05:18:02;13.20;99.90
770;DHT22;368;48.698;9.116;2022-10-16T05:20:29;13.10;99.90
770;DHT22;368;48.698;9.116;2022-10-16T05:22:57;13.40;99.90
770;DHT22;368;48.698;9.116;2022-10-16T05:25:24;12.80;99.90
770;DHT22;368;48.698;9.116;2022-10-16T05:27:50;12.80;99.90
770;DHT22;368;48.698;9.116;2022-10-16T05:30:17;12.80;99.90
770;DHT22;368;48.698;9.116;2022-10-16T05:32:47;12.90;99.90
770;DHT22;368;48.698;9.116;2022-10-16T05:35:14;12.60;99.90
770;DHT22;368;48.698;9.116;2022-10-16T05:37:41;12.70;99.90
770;DHT22;368;48.698;9.116;2022-10-16T05:40:10;13.00;99.90
770;DHT22;368;48.698;9.116;2022-10-16T05:42:37;12.80;99.90
770;DHT22;368;48.698;9.116;2022-10-16T05:45:05;12.70;99.90
770;DHT22;368;48.698;9.116;2022-10-16T05:47:31;12.70;99.90
770;DHT22;368;48.698;9.116;2022-10-16T05:49:58;12.80;99.90
770;DHT22;368;48.698;9.116;2022-10-16T05:52:26;12.70;99.90
770;DHT22;368;48.698;9.116;2022-10-16T05:54:53;12.80;99.90
770;DHT22;368;48.698;9.116;2022-10-16T05:57:21;12.90;99.90
770;DHT22;368;48.698;9.116;2022-10-16T05:59:48;12.90;99.90
770;DHT22;368;48.698;9.116;2022-10-16T06:02:15;12.90;99.90
770;DHT22;368;48.698;9.116;2022-10-16T06:04:41;12.80;99.90
770;DHT22;368;48.698;9.116;2022-10-16T06:07:09;12.90;99.90
770;DHT22;368;48.698;9.116;2022-10-16T06:09:36;12.80;99.90
770;DHT22;368;48.698;9.116;2022-10-16T06:12:03;13.00;99.90
770;DHT22;368;48.698;9.116;2022-10-16T06:14:32;13.10;99.90
770;DHT22;368;48.698;9.116;2022-10-16T06:16:58;13.20;99.90
770;DHT22;368;48.698;9.116;2022-10-16T06:19:25;13.00;99.90
770;DHT22;368;48.698;9.116;2022-10-16T06:21:53;13.10;99.90
770;DHT22;368;48.698;9.116;2022-10-16T06:24:20;13.40;99.90
770;DHT22;368;48.698;9.116;2022-10-16T06:26:46;13.40;99.90
770;DHT22;368;48.698;9.116;2022-10-16T06:29:13;13.30;99.90
770;DHT22;368;48.698;9.116;2022-10-16T06:31:41;13.40;99.90
770;DHT22;368;48.698;9.116;2022-10-16T06:34:09;13.60;99.90
770;DHT22;368;48.698;9.116;2022-10-16T06:36:37;13.60;99.90
770;DHT22;368;48.698;9.116;2022-10-16T06:39:04;13.50;99.90
770;DHT22;368;48.698;9.116;2022-10-16T06:41:33;13.70;99.90
770;DHT22;368;48.698;9.116;2022-10-16T06:44:00;14.10;99.90
770;DHT22;368;48.698;9.116;2022-10-16T06:46:26;13.90;99.90
770;DHT22;368;48.698;9.116;2022-10-16T06:48:54;14.00;99.90
770;DHT22;368;48.698;9.116;2022-10-16T06:51:23;14.00;99.90
770;DHT22;368;48.698;9.116;2022-10-16T06:53:51;13.90;99.90
770;DHT22;368;48.698;9.116;2022-10-16T06:56:20;14.20;99.90
770;DHT22;368;48.698;9.116;2022-10-16T06:58:47;14.40;99.90
770;DHT22;368;48.698;9.116;2022-10-16T07:01:16;14.50;99.90
770;DHT22;368;48.698;9.116;2022-10-16T07:03:45;14.20;99.90
770;DHT22;368;48.698;9.116;2022-10-16T07:06:14;14.40;99.90
770;DHT22;368;48.698;9.116;2022-10-16T07:08:43;14.60;99.90
770;DHT22;368;48.698;9.116;2022-10-16T07:11:12;14.40;99.90
770;DHT22;368;48.698;9.116;2022-10-16T07:13:40;14.40;99.90
770;DHT22;368;48.698;9.116;2022-10-16T07:16:09;14.70;99.90
770;DHT22;368;48.698;9.116;2022-10-16T07:18:36;14.60;99.90
770;DHT22;368;48.698;9.116;2022-10-16T07:21:05;14.70;99.90
770;DHT22;368;48.698;9.116;2022-10-16T07:23:33;14.80;99.90
770;DHT22;368;48.698;9.116;2022-10-16T07:26:00;15.10;99.90
770;DHT22;368;48.698;9.116;2022-10-16T07:28:27;14.90;99.90
770;DHT22;368;48.698;9.116;2022-10-16T07:30:54;14.90;99.90
770;DHT22;368;48.698;9.116;2022-10-16T07:33:21;15.10;99.90
770;DHT22;368;48.698;9.116;2022-10-16T07:35:49;15.20;99.90
770;DHT22;368;48.698;9.116;2022-10-16T07:38:16;15.10;99.90
770;DHT22;368;48.698;9.116;2022-10-16T07:40:47;15.10;99.90
770;DHT22;368;48.698;9.116;2022-10-16T07:43:14;15.30;99.90
770;DHT22;368;48.698;9.116;2022-10-16T07:45:47;15.50;99.90
770;DHT22;368;48.698;9.116;2022-10-16T07:48:15;15.70;99.90
770;DHT22;368;48.698;9.116;2022-10-16T07:50:42;15.60;99.90
770;DHT22;368;48.698;9.116;2022-10-16T07:53:10;15.50;99.90
770;DHT22;368;48.698;9.116;2022-10-16T07:55:37;15.70;99.90
770;DHT22;368;48.698;9.116;2022-10-16T07:58:05;15.70;99.90
770;DHT22;368;48.698;9.116;2022-10-16T08:00:32;15.90;99.90
770;DHT22;368;48.698;9.116;2022-10-16T08:03:00;15.70;99.90
770;DHT22;368;48.698;9.116;2022-10-16T08:05:27;16.00;99.90
770;DHT22;368;48.698;9.116;2022-10-16T08:07:55;15.80;99.90
770;DHT22;368;48.698;9.116;2022-10-16T08:10:26;16.20;99.90
770;DHT22;368;48.698;9.116;2022-10-16T08:12:53;16.00;99.90
770;DHT22;368;48.698;9.116;2022-10-16T08:15:21;16.30;99.90
770;DHT22;368;48.698;9.116;2022-10-16T08:17:55;16.50;99.90
770;DHT22;368;48.698;9.116;2022-10-16T08:20:22;16.70;99.90
770;DHT22;368;48.698;9.116;2022-10-16T08:22:49;16.80;99.90
770;DHT22;368;48.698;9.116;2022-10-16T08:25:16;17.10;99.90
770;DHT22;368;48.698;9.116;2022-10-16T08:27:42;17.40;99.90
770;DHT22;368;48.698;9.116;2022-10-16T08:30:10;17.70;99.90
770;DHT22;368;48.698;9.116;2022-10-16T08:32:39;18.00;99.90
770;DHT22;368;48.698;9.116;2022-10-16T08:35:08;18.10;99.90
770;DHT22;368;48.698;9.116;2022-10-16T08:37:36;18.00;99.90
770;DHT22;368;48.698;9.116;2022-10-16T08:40:03;18.00;99.90
770;DHT22;368;48.698;9.116;2022-10-16T08:42:42;17.90;99.90
770;DHT22;368;48.698;9.116;2022-10-16T08:45:32;17.90;99.90
770;DHT22;368;48.698;9.116;2022-10-16T08:48:15;17.80;99.90
770;DHT22;368;48.698;9.116;2022-10-16T08:50:44;17.70;99.90
770;DHT22;368;48.698;9.116;2022-10-16T08:53:15;17.60;99.90
770;DHT22;368;48.698;9.116;2022-10-16T08:55:46;17.50;99.90
770;DHT22;368;48.698;9.116;2022-10-16T08:58:16;17.40;99.90
770;DHT22;368;48.698;9.116;2022-10-16T09:00:45;17.50;99.90
770;DHT22;368;48.698;9.116;2022-10-16T09:03:21;17.70;99.90
770;DHT22;368;48.698;9.116;2022-10-16T09:06:01;17.90;99.90
770;DHT22;368;48.698;9.116;2022-10-16T09:08:39;18.10;99.90
770;DHT22;368;48.698;9.116;2022-10-16T09:11:14;18.50;99.90
770;DHT22;368;48.698;9.116;2022-10-16T09:13:48;18.80;99.90
770;DHT22;368;48.698;9.116;2022-10-16T09:16:21;18.90;99.90
770;DHT22;368;48.698;9.116;2022-10-16T09:18:56;19.00;99.90
770;DHT22;368;48.698;9.116;2022-10-16T09:21:26;19.20;99.90
770;DHT22;368;48.698;9.116;2022-10-16T09:23:57;19.50;99.90
770;DHT22;368;48.698;9.116;2022-10-16T09:26:25;19.90;99.90
770;DHT22;368;48.698;9.116;2022-10-16T09:28:52;21.80;99.90
770;DHT22;368;48.698;9.116;2022-10-16T09:31:21;22.90;99.90
770;DHT22;368;48.698;9.116;2022-10-16T09:33:51;21.90;99.90
770;DHT22;368;48.698;9.116;2022-10-16T09:36:22;22.70;99.90
770;DHT22;368;48.698;9.116;2022-10-16T09:38:49;24.20;98.20
770;DHT22;368;48.698;9.116;2022-10-16T09:41:18;24.80;95.30
770;DHT22;368;48.698;9.116;2022-10-16T09:43:52;24.40;96.30
770;DHT22;368;48.698;9.116;2022-10-16T09:46:26;24.20;95.80
770;DHT22;368;48.698;9.116;2022-10-16T09:48:56;23.50;97.00
770;DHT22;368;48.698;9.116;2022-10-16T09:51:26;25.50;95.40
770;DHT22;368;48.698;9.116;2022-10-16T09:53:56;25.80;93.10
770;DHT22;368;48.698;9.116;2022-10-16T09:56:24;26.30;93.00
770;DHT22;368;48.698;9.116;2022-10-16T09:58:52;26.10;92.60
770;DHT22;368;48.698;9.116;2022-10-16T10:01:21;26.20;92.40
770;DHT22;368;48.698;9.116;2022-10-16T10:03:50;26.70;91.30
770;DHT22;368;48.698;9.116;2022-10-16T10:06:22;25.70;91.30
770;DHT22;368;48.698;9.116;2022-10-16T10:08:59;25.30;92.70
770;DHT22;368;48.698;9.116;2022-10-16T10:11:48;25.70;92.50
770;DHT22;368;48.698;9.116;2022-10-16T10:14:30;25.60;91.90
770;DHT22;368;48.698;9.116;2022-10-16T10:17:16;25.90;92.80
770;DHT22;368;48.698;9.116;2022-10-16T10:19:47;28.30;87.00
770;DHT22;368;48.698;9.116;2022-10-16T10:22:26;27.90;85.20
770;DHT22;368;48.698;9.116;2022-10-16T10:25:04;27.50;86.10
770;DHT22;368;48.698;9.116;2022-10-16T10:27:39;27.30;86.80
770;DHT22;368;48.698;9.116;2022-10-16T10:30:15;25.80;89.20
770;DHT22;368;48.698;9.116;2022-10-16T10:32:52;25.20;90.20
770;DHT22;368;48.698;9.116;2022-10-16T10:35:24;24.60;91.70
770;DHT22;368;48.698;9.116;2022-10-16T10:38:06;24.30;90.80
770;DHT22;368;48.698;9.116;2022-10-16T10:40:50;24.20;91.60
770;DHT22;368;48.698;9.116;2022-10-16T10:43:37;23.80;91.60
770;DHT22;368;48.698;9.116;2022-10-16T10:46:12;23.60;91.90
770;DHT22;368;48.698;9.116;2022-10-16T10:49:02;24.10;91.70
770;DHT22;368;48.698;9.116;2022-10-16T10:51:40;25.10;91.10
770;DHT22;368;48.698;9.116;2022-10-16T10:54:15;27.00;88.10
770;DHT22;368;48.698;9.116;2022-10-16T10:56:51;28.10;83.40
770;DHT22;368;48.698;9.116;2022-10-16T10:59:38;28.00;82.70
770;DHT22;368;48.698;9.116;2022-10-16T11:02:15;28.10;82.50
770;DHT22;368;48.698;9.116;2022-10-16T11:07:57;27.70;82.60
770;DHT22;368;48.698;9.116;2022-10-16T11:10:28;26.70;83.80
770;DHT22;368;48.698;9.116;2022-10-16T11:13:04;25.60;86.00
770;DHT22;368;48.698;9.116;2022-10-16T11:15:39;25.80;87.10
770;DHT22;368;48.698;9.116;2022-10-16T11:18:10;25.40;87.70
770;DHT22;368;48.698;9.116;2022-10-16T11:20:42;25.00;88.30
770;DHT22;368;48.698;9.116;2022-10-16T11:23:16;25.40;89.70
770;DHT22;368;48.698;9.116;2022-10-16T11:25:45;25.80;89.20
770;DHT22;368;48.698;9.116;2022-10-16T11:28:18;25.80;88.40
770;DHT22;368;48.698;9.116;2022-10-16T11:30:49;25.50;88.20
770;DHT22;368;48.698;9.116;2022-10-16T11:33:36;25.80;88.70
770;DHT22;368;48.698;9.116;2022-10-16T11:36:11;26.20;87.80
770;DHT22;368;48.698;9.116;2022-10-16T11:38:43;26.50;87.40
770;DHT22;368;48.698;9.116;2022-10-16T11:41:22;27.30;84.60
770;DHT22;368;48.698;9.116;2022-10-16T11:44:00;29.10;81.50
770;DHT22;368;48.698;9.116;2022-10-16T11:46:30;30.00;76.60
770;DHT22;368;48.698;9.116;2022-10-16T11:49:06;30.20;76.40
770;DHT22;368;48.698;9.116;2022-10-16T11:51:38;30.70;71.70
770;DHT22;368;48.698;9.116;2022-10-16T11:54:14;30.50;74.30
770;DHT22;368;48.698;9.116;2022-10-16T11:56:43;31.50;70.30
770;DHT22;368;48.698;9.116;2022-10-16T11:59:19;32.20;66.20
770;DHT22;368;48.698;9.116;2022-10-16T12:01:51;31.70;68.00
770;DHT22;368;48.698;9.116;2022-10-16T12:04:24;32.00;67.40
770;DHT22;368;48.698;9.116;2022-10-16T12:06:57;31.90;66.80
770;DHT22;368;48.698;9.116;2022-10-16T12:09:29;32.60;66.50
770;DHT22;368;48.698;9.116;2022-10-16T12:11:57;31.80;65.00
770;DHT22;368;48.698;9.116;2022-10-16T12:14:37;29.10;71.00
770;DHT22;368;48.698;9.116;2022-10-16T12:17:23;27.50;74.90
770;DHT22;368;48.698;9.116;2022-10-16T12:19:58;27.90;74.80
770;DHT22;368;48.698;9.116;2022-10-16T12:22:28;28.70;74.00
770;DHT22;368;48.698;9.116;2022-10-16T12:24:55;28.70;73.60
770;DHT22;368;48.698;9.116;2022-10-16T12:27:25;29.90;70.80
770;DHT22;368;48.698;9.116;2022-10-16T12:29:57;30.30;68.70
770;DHT22;368;48.698;9.116;2022-10-16T12:32:29;28.40;73.50
770;DHT22;368;48.698;9.116;2022-10-16T12:34:57;28.40;75.20
770;DHT22;368;48.698;9.116;2022-10-16T12:37:27;29.50;72.90
770;DHT22;368;48.698;9.116;2022-10-16T12:39:56;29.10;73.30
770;DHT22;368;48.698;9.116;2022-10-16T12:42:32;30.40;70.80
770;DHT22;368;48.698;9.116;2022-10-16T12:45:13;32.00;64.90
770;DHT22;368;48.698;9.116;2022-10-16T12:47:49;32.70;64.10
770;DHT22;368;48.698;9.116;2022-10-16T12:50:32;32.30;61.70
770;DHT22;368;48.698;9.116;2022-10-16T12:53:00;28.60;69.80
770;DHT22;368;48.698;9.116;2022-10-16T12:55:34;26.70;75.60
770;DHT22;368;48.698;9.116;2022-10-16T12:58:24;25.70;76.90
770;DHT22;368;48.698;9.116;2022-10-16T13:00:57;24.80;80.20
770;DHT22;368;48.698;9.116;2022-10-16T13:03:58;24.40;83.10
770;DHT22;368;48.698;9.116;2022-10-16T13:06:34;24.30;82.30
770;DHT22;368;48.698;9.116;2022-10-16T13:09:19;24.90;81.90
770;DHT22;368;48.698;9.116;2022-10-16T13:12:07;24.90;81.50
770;DHT22;368;48.698;9.116;2022-10-16T13:15:00;25.20;81.60
770;DHT22;368;48.698;9.116;2022-10-16T13:17:40;25.40;83.70
770;DHT22;368;48.698;9.116;2022-10-16T13:20:17;25.50;81.10
770;DHT22;368;48.698;9.116;2022-10-16T13:22:56;26.30;81.70
770;DHT22;368;48.698;9.116;2022-10-16T13:25:32;25.80;80.30
770;DHT22;368;48.698;9.116;2022-10-16T13:28:01;25.60;82.70
770;DHT22;368;48.698;9.116;2022-10-16T13:30:30;25.40;82.20
770;DHT22;368;48.698;9.116;2022-10-16T13:33:02;25.40;83.40
770;DHT22;368;48.698;9.116;2022-10-16T13:35:33;25.50;86.50
770;DHT22;368;48.698;9.116;2022-10-16T13:38:11;26.30;82.00
770;DHT22;368;48.698;9.116;2022-10-16T13:40:49;26.30;79.80
770;DHT22;368;48.698;9.116;2022-10-16T13:43:17;26.70;79.60
770;DHT22;368;48.698;9.116;2022-10-16T13:45:53;26.70;78.30
770;DHT22;368;48.698;9.116;2022-10-16T13:48:21;26.30;78.00
770;DHT22;368;48.698;9.116;2022-10-16T13:51:01;25.90;83.60
770;DHT22;368;48.698;9.116;2022-10-16T13:53:30;25.20;84.30
770;DHT22;368;48.698;9.116;2022-10-16T13:55:57;24.90;86.30
770;DHT22;368;48.698;9.116;2022-10-16T13:58:27;24.40;91.90
770;DHT22;368;48.698;9.116;2022-10-16T14:00:55;24.20;87.50
770;DHT22;368;48.698;9.116;2022-10-16T14:03:25;23.80;89.00
770;DHT22;368;48.698;9.116;2022-10-16T14:05:54;23.50;89.50
770;DHT22;368;48.698;9.116;2022-10-16T14:08:22;23.20;90.20
770;DHT22;368;48.698;9.116;2022-10-16T14:10:51;23.50;90.80
770;DHT22;368;48.698;9.116;2022-10-16T14:13:22;23.60;91.00
770;DHT22;368;48.698;9.116;2022-10-16T14:15:52;23.60;91.70
770;DHT22;368;48.698;9.116;2022-10-16T14:18:22;23.40;91.70
770;DHT22;368;48.698;9.116;2022-10-16T14:20:51;23.70;91.90
770;DHT22;368;48.698;9.116;2022-10-16T14:23:23;23.40;91.60
770;DHT22;368;48.698;9.116;2022-10-16T14:25:51;23.50;91.80
770;DHT22;368;48.698;9.116;2022-10-16T14:28:20;23.70;91.70
770;DHT22;368;48.698;9.116;2022-10-16T14:30:51;23.40;92.20
770;DHT22;368;48.698;9.116;2022-10-16T14:33:22;23.60;91.30
770;DHT22;368;48.698;9.116;2022-10-16T14:36:02;23.70;91.40
770;DHT22;368;48.698;9.116;2022-10-16T14:38:30;23.50;91.80
770;DHT22;368;48.698;9.116;2022-10-16T14:40:59;23.70;91.60
770;DHT22;368;48.698;9.116;2022-10-16T14:43:32;24.40;90.80
770;DHT22;368;48.698;9.116;2022-10-16T14:46:00;25.20;90.10
770;DHT22;368;48.698;9.116;2022-10-16T14:48:28;25.60;89.20
770;DHT22;368;48.698;9.116;2022-10-16T14:50:55;24.90;89.60
770;DHT22;368;48.698;9.116;2022-10-16T14:53:23;24.40;90.60
770;DHT22;368;48.698;9.116;2022-10-16T14:55:50;24.20;90.10
770;DHT22;368;48.698;9.116;2022-10-16T14:58:22;24.10;90.70
770;DHT22;368;48.698;9.116;2022-10-16T15:00:50;24.60;90.30
770;DHT22;368;48.698;9.116;2022-10-16T15:03:16;24.70;90.00
770;DHT22;368;48.698;9.116;2022-10-16T15:05:43;25.10;90.00
770;DHT22;368;48.698;9.116;2022-10-16T15:08:10;26.00;87.30
770;DHT22;368;48.698;9.116;2022-10-16T15:10:41;25.90;85.30
770;DHT22;368;48.698;9.116;2022-10-16T15:13:11;24.80;88.10
770;DHT22;368;48.698;9.116;2022-10-16T15:15:43;24.40;90.40
770;DHT22;368;48.698;9.116;2022-10-16T15:18:10;24.30;90.60
770;DHT22;368;48.698;9.116;2022-10-16T15:20:40;24.00;90.60
770;DHT22;368;48.698;9.116;2022-10-16T15:23:13;23.80;91.10
770;DHT22;368;48.698;9.116;2022-10-16T15:25:44;23.40;92.20
770;DHT22;368;48.698;9.116;2022-10-16T15:28:11;23.30;92.40
770;DHT22;368;48.698;9.116;2022-10-16T15:30:39;23.00;93.60
770;DHT22;368;48.698;9.116;2022-10-16T15:33:12;22.80;94.00
770;DHT22;368;48.698;9.116;2022-10-16T15:35:39;22.30;94.20
770;DHT22;368;48.698;9.116;2022-10-16T15:38:08;22.20;95.20
770;DHT22;368;48.698;9.116;2022-10-16T15:40:35;21.90;95.50
770;DHT22;368;48.698;9.116;2022-10-16T15:43:04;21.50;96.50
770;DHT22;368;48.698;9.116;2022-10-16T15:45:31;21.40;96.90
770;DHT22;368;48.698;9.116;2022-10-16T15:47:59;21.10;97.20
770;DHT22;368;48.698;9.116;2022-10-16T15:50:26;20.80;98.30
770;DHT22;368;48.698;9.116;2022-10-16T15:52:53;20.40;99.40
770;DHT22;368;48.698;9.116;2022-10-16T15:55:20;20.30;99.90
770;DHT22;368;48.698;9.116;2022-10-16T15:57:46;20.10;99.90
770;DHT22;368;48.698;9.116;2022-10-16T16:00:17;20.10;99.90
770;DHT22;368;48.698;9.116;2022-10-16T16:02:50;20.10;99.90
770;DHT22;368;48.698;9.116;2022-10-16T16:05:19;20.00;99.90
770;DHT22;368;48.698;9.116;2022-10-16T16:07:47;19.80;99.90
770;DHT22;368;48.698;9.116;2022-10-16T16:10:15;19.70;99.90
770;DHT22;368;48.698;9.116;2022-10-16T16:12:42;19.50;99.90
770;DHT22;368;48.698;9.116;2022-10-16T16:15:09;19.30;99.90
770;DHT22;368;48.698;9.116;2022-10-16T16:17:37;19.10;99.90
770;DHT22;368;48.698;9.116;2022-10-16T16:20:05;19.00;99.90
770;DHT22;368;48.698;9.116;2022-10-16T16:22:33;18.80;99.90
770;DHT22;368;48.698;9.116;2022-10-16T16:25:00;18.70;99.90
770;DHT22;368;48.698;9.116;2022-10-16T16:27:26;18.50;99.90
770;DHT22;368;48.698;9.116;2022-10-16T16:29:55;18.30;99.90
770;DHT22;368;48.698;9.116;2022-10-16T16:32:22;18.10;99.90
770;DHT22;368;48.698;9.116;2022-10-16T16:34:50;17.90;99.90
770;DHT22;368;48.698;9.116;2022-10-16T16:37:17;17.70;99.90
770;DHT22;368;48.698;9.116;2022-10-16T16:39:44;17.50;99.90
770;DHT22;368;48.698;9.116;2022-10-16T16:42:10;17.40;99.90
770;DHT22;368;48.698;9.116;2022-10-16T16:44:37;17.20;99.90
770;DHT22;368;48.698;9.116;2022-10-16T16:47:05;17.20;99.90
770;DHT22;368;48.698;9.116;2022-10-16T16:49:32;17.10;99.90
770;DHT22;368;48.698;9.116;2022-10-16T16:52:00;17.00;99.90
770;DHT22;368;48.698;9.116;2022-10-16T16:54:27;16.90;99.90
770;DHT22;368;48.698;9.116;2022-10-16T16:56:54;16.80;99.90